METAR Data
IDs: Format: Raw Decoded Include TAF

Data at: 0121 UTC 20 Jan 2022

LSZC 200050Z AUTO 27002KT 4200 -SN BR FEW008 SCT020 BKN028 01/M00 Q1027